sensor_id;sensor_type;location;lat;lon;timestamp;P1;durP1;ratioP1;P2;durP2;ratioP2
66139;SDS011;52945;51.908;8.364;2023-02-07T00:00:20;9.25;;;4.50;;
66139;SDS011;52945;51.908;8.364;2023-02-07T00:03:21;8.20;;;3.80;;
66139;SDS011;52945;51.908;8.364;2023-02-07T00:06:25;12.43;;;4.60;;
66139;SDS011;52945;51.908;8.364;2023-02-07T00:09:30;11.63;;;4.75;;
66139;SDS011;52945;51.908;8.364;2023-02-07T00:12:31;10.05;;;4.15;;
66139;SDS011;52945;51.908;8.364;2023-02-07T00:15:32;9.00;;;3.95;;
66139;SDS011;52945;51.908;8.364;2023-02-07T00:18:33;10.18;;;4.57;;
66139;SDS011;52945;51.908;8.364;2023-02-07T00:21:34;8.52;;;4.05;;
66139;SDS011;52945;51.908;8.364;2023-02-07T00:24:35;10.48;;;3.65;;
66139;SDS011;52945;51.908;8.364;2023-02-07T00:27:36;9.30;;;4.38;;
66139;SDS011;52945;51.908;8.364;2023-02-07T00:30:36;4.97;;;3.20;;
66139;SDS011;52945;51.908;8.364;2023-02-07T00:33:38;6.45;;;3.63;;
66139;SDS011;52945;51.908;8.364;2023-02-07T00:36:40;7.03;;;3.50;;
66139;SDS011;52945;51.908;8.364;2023-02-07T00:39:41;8.60;;;3.83;;
66139;SDS011;52945;51.908;8.364;2023-02-07T00:42:41;6.40;;;3.50;;
66139;SDS011;52945;51.908;8.364;2023-02-07T00:45:42;5.70;;;3.30;;
66139;SDS011;52945;51.908;8.364;2023-02-07T00:48:42;9.55;;;3.78;;
66139;SDS011;52945;51.908;8.364;2023-02-07T00:51:43;7.82;;;3.75;;
66139;SDS011;52945;51.908;8.364;2023-02-07T00:54:44;5.40;;;2.78;;
66139;SDS011;52945;51.908;8.364;2023-02-07T00:57:44;5.82;;;3.30;;
66139;SDS011;52945;51.908;8.364;2023-02-07T01:00:45;6.90;;;3.63;;
66139;SDS011;52945;51.908;8.364;2023-02-07T01:03:46;6.38;;;3.20;;
66139;SDS011;52945;51.908;8.364;2023-02-07T01:06:47;5.18;;;2.70;;
66139;SDS011;52945;51.908;8.364;2023-02-07T01:09:48;5.25;;;2.53;;
66139;SDS011;52945;51.908;8.364;2023-02-07T01:12:48;6.20;;;3.17;;
66139;SDS011;52945;51.908;8.364;2023-02-07T01:15:49;6.97;;;3.83;;
66139;SDS011;52945;51.908;8.364;2023-02-07T01:18:50;5.65;;;3.40;;
66139;SDS011;52945;51.908;8.364;2023-02-07T01:21:51;5.75;;;3.40;;
66139;SDS011;52945;51.908;8.364;2023-02-07T01:24:55;7.28;;;3.13;;
66139;SDS011;52945;51.908;8.364;2023-02-07T01:27:56;8.18;;;3.65;;
66139;SDS011;52945;51.908;8.364;2023-02-07T01:30:56;11.40;;;4.20;;
66139;SDS011;52945;51.908;8.364;2023-02-07T01:33:58;6.93;;;4.60;;
66139;SDS011;52945;51.908;8.364;2023-02-07T01:36:59;8.25;;;3.88;;
66139;SDS011;52945;51.908;8.364;2023-02-07T01:39:59;7.60;;;4.10;;
66139;SDS011;52945;51.908;8.364;2023-02-07T01:43:00;8.02;;;4.20;;
66139;SDS011;52945;51.908;8.364;2023-02-07T01:46:00;5.97;;;2.95;;
66139;SDS011;52945;51.908;8.364;2023-02-07T01:49:04;5.95;;;3.22;;
66139;SDS011;52945;51.908;8.364;2023-02-07T01:52:11;5.72;;;3.45;;
66139;SDS011;52945;51.908;8.364;2023-02-07T01:55:19;4.22;;;2.70;;
66139;SDS011;52945;51.908;8.364;2023-02-07T01:58:23;8.25;;;4.20;;
66139;SDS011;52945;51.908;8.364;2023-02-07T02:01:25;5.35;;;2.60;;
66139;SDS011;52945;51.908;8.364;2023-02-07T02:04:25;7.20;;;3.08;;
66139;SDS011;52945;51.908;8.364;2023-02-07T02:07:27;7.72;;;2.90;;
66139;SDS011;52945;51.908;8.364;2023-02-07T02:11:09;5.75;;;3.38;;
66139;SDS011;52945;51.908;8.364;2023-02-07T02:14:09;10.10;;;2.92;;
66139;SDS011;52945;51.908;8.364;2023-02-07T02:44:42;7.22;;;3.20;;
66139;SDS011;52945;51.908;8.364;2023-02-07T02:47:13;6.18;;;3.03;;
66139;SDS011;52945;51.908;8.364;2023-02-07T02:50:14;11.18;;;2.97;;
66139;SDS011;52945;51.908;8.364;2023-02-07T02:53:20;6.32;;;3.10;;
66139;SDS011;52945;51.908;8.364;2023-02-07T03:09:40;8.45;;;4.53;;
66139;SDS011;52945;51.908;8.364;2023-02-07T03:13:10;5.05;;;3.17;;
66139;SDS011;52945;51.908;8.364;2023-02-07T03:16:20;9.25;;;4.05;;
66139;SDS011;52945;51.908;8.364;2023-02-07T03:19:27;5.00;;;3.25;;
66139;SDS011;52945;51.908;8.364;2023-02-07T03:22:34;10.18;;;4.20;;
66139;SDS011;52945;51.908;8.364;2023-02-07T03:25:36;5.03;;;3.08;;
66139;SDS011;52945;51.908;8.364;2023-02-07T03:28:41;4.55;;;2.40;;
66139;SDS011;52945;51.908;8.364;2023-02-07T03:31:46;4.13;;;2.58;;
66139;SDS011;52945;51.908;8.364;2023-02-07T03:34:54;4.78;;;2.35;;
66139;SDS011;52945;51.908;8.364;2023-02-07T03:38:04;4.80;;;3.20;;
66139;SDS011;52945;51.908;8.364;2023-02-07T03:41:10;7.47;;;2.25;;
66139;SDS011;52945;51.908;8.364;2023-02-07T03:44:21;2.78;;;2.33;;
66139;SDS011;52945;51.908;8.364;2023-02-07T03:47:24;4.75;;;2.53;;
66139;SDS011;52945;51.908;8.364;2023-02-07T03:53:26;5.40;;;2.72;;
66139;SDS011;52945;51.908;8.364;2023-02-07T03:56:27;3.85;;;2.67;;
66139;SDS011;52945;51.908;8.364;2023-02-07T03:59:27;7.97;;;3.45;;
66139;SDS011;52945;51.908;8.364;2023-02-07T04:02:28;4.00;;;2.80;;
66139;SDS011;52945;51.908;8.364;2023-02-07T04:05:28;5.60;;;2.75;;
66139;SDS011;52945;51.908;8.364;2023-02-07T04:08:30;3.65;;;2.78;;
66139;SDS011;52945;51.908;8.364;2023-02-07T04:11:31;4.30;;;3.10;;
66139;SDS011;52945;51.908;8.364;2023-02-07T04:14:31;4.18;;;2.85;;
66139;SDS011;52945;51.908;8.364;2023-02-07T04:17:32;6.57;;;2.67;;
66139;SDS011;52945;51.908;8.364;2023-02-07T04:20:33;5.50;;;3.58;;
66139;SDS011;52945;51.908;8.364;2023-02-07T04:23:34;4.25;;;2.65;;
66139;SDS011;52945;51.908;8.364;2023-02-07T04:26:35;3.95;;;2.22;;
66139;SDS011;52945;51.908;8.364;2023-02-07T04:29:35;3.53;;;2.22;;
66139;SDS011;52945;51.908;8.364;2023-02-07T04:32:36;4.40;;;2.95;;
66139;SDS011;52945;51.908;8.364;2023-02-07T04:35:37;5.65;;;2.38;;
66139;SDS011;52945;51.908;8.364;2023-02-07T04:38:37;3.65;;;2.28;;
66139;SDS011;52945;51.908;8.364;2023-02-07T04:41:38;3.65;;;2.70;;
66139;SDS011;52945;51.908;8.364;2023-02-07T04:44:38;3.55;;;2.35;;
66139;SDS011;52945;51.908;8.364;2023-02-07T04:47:39;2.00;;;1.60;;
66139;SDS011;52945;51.908;8.364;2023-02-07T04:50:40;6.13;;;2.67;;
66139;SDS011;52945;51.908;8.364;2023-02-07T04:53:40;7.38;;;2.92;;
66139;SDS011;52945;51.908;8.364;2023-02-07T04:56:41;4.97;;;3.15;;
66139;SDS011;52945;51.908;8.364;2023-02-07T04:59:42;6.05;;;2.72;;
66139;SDS011;52945;51.908;8.364;2023-02-07T05:02:42;4.40;;;2.72;;
66139;SDS011;52945;51.908;8.364;2023-02-07T05:05:43;3.85;;;2.50;;
66139;SDS011;52945;51.908;8.364;2023-02-07T05:08:44;4.10;;;2.70;;
66139;SDS011;52945;51.908;8.364;2023-02-07T05:11:45;3.80;;;1.90;;
66139;SDS011;52945;51.908;8.364;2023-02-07T05:14:45;4.47;;;2.88;;
66139;SDS011;52945;51.908;8.364;2023-02-07T05:17:46;4.13;;;2.67;;
66139;SDS011;52945;51.908;8.364;2023-02-07T05:20:46;7.57;;;2.97;;
66139;SDS011;52945;51.908;8.364;2023-02-07T05:23:47;5.97;;;3.45;;
66139;SDS011;52945;51.908;8.364;2023-02-07T05:26:48;3.70;;;2.45;;
66139;SDS011;52945;51.908;8.364;2023-02-07T05:29:48;5.47;;;3.20;;
66139;SDS011;52945;51.908;8.364;2023-02-07T05:32:49;4.93;;;3.03;;
66139;SDS011;52945;51.908;8.364;2023-02-07T05:36:05;6.85;;;3.42;;
66139;SDS011;52945;51.908;8.364;2023-02-07T05:39:06;8.07;;;3.63;;
66139;SDS011;52945;51.908;8.364;2023-02-07T05:42:06;4.70;;;2.97;;
66139;SDS011;52945;51.908;8.364;2023-02-07T05:45:07;6.97;;;3.08;;
66139;SDS011;52945;51.908;8.364;2023-02-07T05:48:08;4.82;;;2.83;;
66139;SDS011;52945;51.908;8.364;2023-02-07T05:51:08;5.75;;;3.15;;
66139;SDS011;52945;51.908;8.364;2023-02-07T05:54:09;6.45;;;3.60;;
66139;SDS011;52945;51.908;8.364;2023-02-07T05:57:09;4.63;;;2.42;;
66139;SDS011;52945;51.908;8.364;2023-02-07T06:00:12;8.20;;;3.40;;
66139;SDS011;52945;51.908;8.364;2023-02-07T06:03:14;7.40;;;3.25;;
66139;SDS011;52945;51.908;8.364;2023-02-07T06:06:15;4.57;;;2.72;;
66139;SDS011;52945;51.908;8.364;2023-02-07T06:09:15;6.70;;;3.25;;
66139;SDS011;52945;51.908;8.364;2023-02-07T06:12:16;5.63;;;3.17;;
66139;SDS011;52945;51.908;8.364;2023-02-07T06:15:16;6.03;;;3.17;;
66139;SDS011;52945;51.908;8.364;2023-02-07T06:18:17;8.85;;;3.63;;
66139;SDS011;52945;51.908;8.364;2023-02-07T06:21:18;6.25;;;3.20;;
66139;SDS011;52945;51.908;8.364;2023-02-07T06:24:18;6.68;;;3.88;;
66139;SDS011;52945;51.908;8.364;2023-02-07T06:27:21;7.05;;;3.33;;
66139;SDS011;52945;51.908;8.364;2023-02-07T06:30:21;4.68;;;3.13;;
66139;SDS011;52945;51.908;8.364;2023-02-07T06:33:22;5.93;;;3.17;;
66139;SDS011;52945;51.908;8.364;2023-02-07T06:36:22;8.02;;;4.82;;
66139;SDS011;52945;51.908;8.364;2023-02-07T06:39:23;6.75;;;3.35;;
66139;SDS011;52945;51.908;8.364;2023-02-07T06:42:24;4.20;;;3.05;;
66139;SDS011;52945;51.908;8.364;2023-02-07T06:45:24;9.57;;;3.88;;
66139;SDS011;52945;51.908;8.364;2023-02-07T06:48:25;7.07;;;4.45;;
66139;SDS011;52945;51.908;8.364;2023-02-07T06:51:26;7.50;;;4.13;;
66139;SDS011;52945;51.908;8.364;2023-02-07T06:54:27;8.77;;;4.32;;
66139;SDS011;52945;51.908;8.364;2023-02-07T06:57:27;5.22;;;3.40;;
66139;SDS011;52945;51.908;8.364;2023-02-07T07:00:28;8.30;;;3.40;;
66139;SDS011;52945;51.908;8.364;2023-02-07T07:03:29;7.68;;;3.22;;
66139;SDS011;52945;51.908;8.364;2023-02-07T07:06:30;6.97;;;3.58;;
66139;SDS011;52945;51.908;8.364;2023-02-07T07:09:30;9.00;;;4.72;;
66139;SDS011;52945;51.908;8.364;2023-02-07T07:12:31;9.52;;;4.03;;
66139;SDS011;52945;51.908;8.364;2023-02-07T07:18:50;16.10;;;8.63;;
66139;SDS011;52945;51.908;8.364;2023-02-07T07:21:51;12.23;;;5.45;;
66139;SDS011;52945;51.908;8.364;2023-02-07T07:24:51;9.75;;;4.10;;
66139;SDS011;52945;51.908;8.364;2023-02-07T07:27:52;7.18;;;3.80;;
66139;SDS011;52945;51.908;8.364;2023-02-07T07:30:53;9.00;;;5.22;;
66139;SDS011;52945;51.908;8.364;2023-02-07T07:33:53;12.43;;;4.72;;
66139;SDS011;52945;51.908;8.364;2023-02-07T07:36:54;7.70;;;3.75;;
66139;SDS011;52945;51.908;8.364;2023-02-07T07:39:55;8.40;;;4.18;;
66139;SDS011;52945;51.908;8.364;2023-02-07T07:42:56;6.00;;;4.10;;
66139;SDS011;52945;51.908;8.364;2023-02-07T07:45:57;6.35;;;3.47;;
66139;SDS011;52945;51.908;8.364;2023-02-07T07:51:59;5.97;;;3.55;;
66139;SDS011;52945;51.908;8.364;2023-02-07T07:55:00;8.70;;;4.43;;
66139;SDS011;52945;51.908;8.364;2023-02-07T07:58:00;8.98;;;3.95;;
66139;SDS011;52945;51.908;8.364;2023-02-07T08:01:01;7.75;;;3.70;;
66139;SDS011;52945;51.908;8.364;2023-02-07T08:04:02;6.55;;;4.18;;
66139;SDS011;52945;51.908;8.364;2023-02-07T08:07:03;9.68;;;4.72;;
66139;SDS011;52945;51.908;8.364;2023-02-07T08:10:03;9.18;;;4.63;;
66139;SDS011;52945;51.908;8.364;2023-02-07T08:13:04;8.85;;;4.40;;
66139;SDS011;52945;51.908;8.364;2023-02-07T08:16:05;7.90;;;3.63;;
66139;SDS011;52945;51.908;8.364;2023-02-07T08:22:08;9.05;;;4.55;;
66139;SDS011;52945;51.908;8.364;2023-02-07T08:25:08;15.68;;;4.85;;
66139;SDS011;52945;51.908;8.364;2023-02-07T08:28:09;10.32;;;4.88;;
66139;SDS011;52945;51.908;8.364;2023-02-07T08:31:09;11.25;;;4.75;;
66139;SDS011;52945;51.908;8.364;2023-02-07T08:34:11;10.13;;;5.38;;
66139;SDS011;52945;51.908;8.364;2023-02-07T08:37:11;11.35;;;5.05;;
66139;SDS011;52945;51.908;8.364;2023-02-07T08:40:12;11.13;;;5.15;;
66139;SDS011;52945;51.908;8.364;2023-02-07T08:43:13;11.27;;;5.43;;
66139;SDS011;52945;51.908;8.364;2023-02-07T08:46:14;15.07;;;5.80;;
66139;SDS011;52945;51.908;8.364;2023-02-07T08:49:14;9.30;;;4.80;;
66139;SDS011;52945;51.908;8.364;2023-02-07T08:52:15;10.15;;;5.40;;
66139;SDS011;52945;51.908;8.364;2023-02-07T08:55:15;9.95;;;4.60;;
66139;SDS011;52945;51.908;8.364;2023-02-07T08:58:16;9.27;;;4.82;;
66139;SDS011;52945;51.908;8.364;2023-02-07T09:01:17;9.98;;;4.78;;
66139;SDS011;52945;51.908;8.364;2023-02-07T09:04:17;9.57;;;4.63;;
66139;SDS011;52945;51.908;8.364;2023-02-07T09:07:18;10.57;;;5.40;;
66139;SDS011;52945;51.908;8.364;2023-02-07T09:10:19;13.70;;;5.78;;
66139;SDS011;52945;51.908;8.364;2023-02-07T09:13:19;9.15;;;4.50;;
66139;SDS011;52945;51.908;8.364;2023-02-07T09:16:20;13.10;;;5.00;;
66139;SDS011;52945;51.908;8.364;2023-02-07T09:19:22;8.88;;;4.47;;
66139;SDS011;52945;51.908;8.364;2023-02-07T09:22:22;15.95;;;5.68;;
66139;SDS011;52945;51.908;8.364;2023-02-07T09:25:23;13.35;;;5.32;;
66139;SDS011;52945;51.908;8.364;2023-02-07T09:28:23;10.73;;;5.22;;
66139;SDS011;52945;51.908;8.364;2023-02-07T09:31:24;10.63;;;5.25;;
66139;SDS011;52945;51.908;8.364;2023-02-07T09:34:25;9.02;;;4.95;;
66139;SDS011;52945;51.908;8.364;2023-02-07T09:37:26;9.45;;;5.03;;
66139;SDS011;52945;51.908;8.364;2023-02-07T09:40:27;10.40;;;5.10;;
66139;SDS011;52945;51.908;8.364;2023-02-07T09:43:47;11.75;;;5.05;;
66139;SDS011;52945;51.908;8.364;2023-02-07T09:47:08;10.48;;;5.20;;
66139;SDS011;52945;51.908;8.364;2023-02-07T09:50:19;8.88;;;4.75;;
66139;SDS011;52945;51.908;8.364;2023-02-07T09:53:25;10.02;;;4.72;;
66139;SDS011;52945;51.908;8.364;2023-02-07T09:56:39;12.15;;;4.93;;
66139;SDS011;52945;51.908;8.364;2023-02-07T10:06:04;10.15;;;4.35;;
66139;SDS011;52945;51.908;8.364;2023-02-07T10:09:16;10.38;;;4.93;;
66139;SDS011;52945;51.908;8.364;2023-02-07T10:15:48;10.90;;;4.78;;
66139;SDS011;52945;51.908;8.364;2023-02-07T10:19:02;10.77;;;5.00;;
66139;SDS011;52945;51.908;8.364;2023-02-07T10:22:30;11.10;;;4.60;;
66139;SDS011;52945;51.908;8.364;2023-02-07T10:32:12;11.90;;;5.47;;
66139;SDS011;52945;51.908;8.364;2023-02-07T10:35:21;12.52;;;5.88;;
66139;SDS011;52945;51.908;8.364;2023-02-07T10:38:27;8.60;;;4.85;;
66139;SDS011;52945;51.908;8.364;2023-02-07T10:41:42;13.52;;;5.35;;
66139;SDS011;52945;51.908;8.364;2023-02-07T10:44:43;12.25;;;5.15;;
66139;SDS011;52945;51.908;8.364;2023-02-07T10:47:44;13.05;;;4.90;;
66139;SDS011;52945;51.908;8.364;2023-02-07T10:50:44;9.88;;;5.15;;
66139;SDS011;52945;51.908;8.364;2023-02-07T10:53:46;9.40;;;4.63;;
66139;SDS011;52945;51.908;8.364;2023-02-07T10:56:53;12.25;;;5.25;;
66139;SDS011;52945;51.908;8.364;2023-02-07T11:03:03;11.65;;;5.05;;
66139;SDS011;52945;51.908;8.364;2023-02-07T11:06:05;8.63;;;4.15;;
66139;SDS011;52945;51.908;8.364;2023-02-07T11:15:32;10.25;;;4.55;;
66139;SDS011;52945;51.908;8.364;2023-02-07T11:18:57;9.38;;;4.72;;
66139;SDS011;52945;51.908;8.364;2023-02-07T11:22:09;10.60;;;4.22;;
66139;SDS011;52945;51.908;8.364;2023-02-07T11:25:17;12.07;;;4.50;;
66139;SDS011;52945;51.908;8.364;2023-02-07T11:28:22;10.48;;;5.20;;
66139;SDS011;52945;51.908;8.364;2023-02-07T11:31:30;9.82;;;4.70;;
66139;SDS011;52945;51.908;8.364;2023-02-07T11:34:43;9.45;;;4.70;;
66139;SDS011;52945;51.908;8.364;2023-02-07T11:38:11;7.80;;;3.90;;
66139;SDS011;52945;51.908;8.364;2023-02-07T11:41:20;10.05;;;4.35;;
66139;SDS011;52945;51.908;8.364;2023-02-07T11:44:23;10.85;;;4.93;;
66139;SDS011;52945;51.908;8.364;2023-02-07T11:47:25;9.65;;;4.60;;
66139;SDS011;52945;51.908;8.364;2023-02-07T11:53:50;9.80;;;4.55;;
66139;SDS011;52945;51.908;8.364;2023-02-07T11:56:59;7.40;;;4.10;;
66139;SDS011;52945;51.908;8.364;2023-02-07T12:00:17;7.95;;;4.00;;
66139;SDS011;52945;51.908;8.364;2023-02-07T12:03:23;10.70;;;4.72;;
66139;SDS011;52945;51.908;8.364;2023-02-07T12:06:50;9.90;;;4.43;;
66139;SDS011;52945;51.908;8.364;2023-02-07T12:09:57;9.43;;;4.57;;
66139;SDS011;52945;51.908;8.364;2023-02-07T12:16:03;9.45;;;4.63;;
66139;SDS011;52945;51.908;8.364;2023-02-07T12:19:20;8.70;;;4.47;;
66139;SDS011;52945;51.908;8.364;2023-02-07T12:22:27;10.10;;;4.50;;
66139;SDS011;52945;51.908;8.364;2023-02-07T12:25:38;10.05;;;4.70;;
66139;SDS011;52945;51.908;8.364;2023-02-07T12:28:47;9.27;;;4.88;;
66139;SDS011;52945;51.908;8.364;2023-02-07T12:35:45;8.77;;;4.40;;
66139;SDS011;52945;51.908;8.364;2023-02-07T12:38:31;8.55;;;4.43;;
66139;SDS011;52945;51.908;8.364;2023-02-07T12:41:50;8.43;;;4.07;;
66139;SDS011;52945;51.908;8.364;2023-02-07T12:48:04;9.13;;;4.43;;
66139;SDS011;52945;51.908;8.364;2023-02-07T12:58:16;9.10;;;4.32;;
66139;SDS011;52945;51.908;8.364;2023-02-07T13:01:48;7.78;;;3.97;;
66139;SDS011;52945;51.908;8.364;2023-02-07T13:05:31;8.25;;;3.90;;
66139;SDS011;52945;51.908;8.364;2023-02-07T13:08:56;7.30;;;3.72;;
66139;SDS011;52945;51.908;8.364;2023-02-07T13:12:23;9.02;;;4.30;;
66139;SDS011;52945;51.908;8.364;2023-02-07T13:15:41;9.52;;;3.80;;
66139;SDS011;52945;51.908;8.364;2023-02-07T13:19:27;7.95;;;3.80;;
66139;SDS011;52945;51.908;8.364;2023-02-07T13:22:34;8.05;;;3.80;;
66139;SDS011;52945;51.908;8.364;2023-02-07T13:25:41;8.32;;;3.88;;
66139;SDS011;52945;51.908;8.364;2023-02-07T13:28:47;7.60;;;3.67;;
66139;SDS011;52945;51.908;8.364;2023-02-07T13:31:56;9.93;;;4.43;;
66139;SDS011;52945;51.908;8.364;2023-02-07T13:35:02;7.32;;;4.00;;
66139;SDS011;52945;51.908;8.364;2023-02-07T13:45:39;6.97;;;3.67;;
66139;SDS011;52945;51.908;8.364;2023-02-07T13:52:04;7.75;;;4.07;;
66139;SDS011;52945;51.908;8.364;2023-02-07T13:55:14;6.57;;;3.38;;
66139;SDS011;52945;51.908;8.364;2023-02-07T14:01:53;7.65;;;3.70;;
66139;SDS011;52945;51.908;8.364;2023-02-07T14:05:04;9.00;;;4.05;;
66139;SDS011;52945;51.908;8.364;2023-02-07T14:11:30;7.50;;;3.85;;
66139;SDS011;52945;51.908;8.364;2023-02-07T14:14:55;8.82;;;3.97;;
66139;SDS011;52945;51.908;8.364;2023-02-07T14:21:43;7.13;;;3.65;;
66139;SDS011;52945;51.908;8.364;2023-02-07T14:25:10;7.90;;;3.53;;
66139;SDS011;52945;51.908;8.364;2023-02-07T14:31:22;8.50;;;3.78;;
66139;SDS011;52945;51.908;8.364;2023-02-07T14:34:23;7.72;;;4.15;;
66139;SDS011;52945;51.908;8.364;2023-02-07T14:40:52;6.70;;;3.45;;
66139;SDS011;52945;51.908;8.364;2023-02-07T14:43:58;9.85;;;3.28;;
66139;SDS011;52945;51.908;8.364;2023-02-07T14:47:00;5.35;;;3.03;;
66139;SDS011;52945;51.908;8.364;2023-02-07T14:50:03;5.75;;;3.05;;
66139;SDS011;52945;51.908;8.364;2023-02-07T14:53:05;6.63;;;3.25;;
66139;SDS011;52945;51.908;8.364;2023-02-07T14:56:37;6.85;;;3.33;;
66139;SDS011;52945;51.908;8.364;2023-02-07T14:59:56;7.45;;;3.38;;
66139;SDS011;52945;51.908;8.364;2023-02-07T15:03:02;4.90;;;2.67;;
66139;SDS011;52945;51.908;8.364;2023-02-07T15:06:18;7.07;;;3.15;;
66139;SDS011;52945;51.908;8.364;2023-02-07T15:09:22;8.23;;;3.47;;
66139;SDS011;52945;51.908;8.364;2023-02-07T15:12:24;5.75;;;2.90;;
66139;SDS011;52945;51.908;8.364;2023-02-07T15:15:27;7.78;;;3.53;;
66139;SDS011;52945;51.908;8.364;2023-02-07T15:18:31;8.35;;;3.15;;
66139;SDS011;52945;51.908;8.364;2023-02-07T15:21:38;6.28;;;3.28;;
66139;SDS011;52945;51.908;8.364;2023-02-07T15:24:41;6.55;;;3.42;;
66139;SDS011;52945;51.908;8.364;2023-02-07T15:27:56;7.13;;;3.17;;
66139;SDS011;52945;51.908;8.364;2023-02-07T15:34:42;7.25;;;3.55;;
66139;SDS011;52945;51.908;8.364;2023-02-07T15:37:36;10.20;;;4.25;;
66139;SDS011;52945;51.908;8.364;2023-02-07T15:40:36;6.93;;;3.47;;
66139;SDS011;52945;51.908;8.364;2023-02-07T15:43:51;7.70;;;3.85;;
66139;SDS011;52945;51.908;8.364;2023-02-07T15:50:00;7.32;;;3.83;;
66139;SDS011;52945;51.908;8.364;2023-02-07T15:53:02;7.93;;;3.58;;
66139;SDS011;52945;51.908;8.364;2023-02-07T15:56:07;8.82;;;3.80;;
66139;SDS011;52945;51.908;8.364;2023-02-07T15:59:09;7.50;;;3.65;;
66139;SDS011;52945;51.908;8.364;2023-02-07T16:02:19;7.97;;;3.80;;
66139;SDS011;52945;51.908;8.364;2023-02-07T16:05:28;6.95;;;3.78;;
66139;SDS011;52945;51.908;8.364;2023-02-07T16:08:32;8.25;;;3.70;;
66139;SDS011;52945;51.908;8.364;2023-02-07T16:11:39;8.75;;;4.32;;
66139;SDS011;52945;51.908;8.364;2023-02-07T16:14:40;7.57;;;3.67;;
66139;SDS011;52945;51.908;8.364;2023-02-07T16:17:41;8.93;;;4.13;;
66139;SDS011;52945;51.908;8.364;2023-02-07T16:20:42;10.02;;;4.13;;
66139;SDS011;52945;51.908;8.364;2023-02-07T16:23:43;9.70;;;4.72;;
66139;SDS011;52945;51.908;8.364;2023-02-07T16:26:45;7.63;;;3.88;;
66139;SDS011;52945;51.908;8.364;2023-02-07T16:29:48;8.70;;;3.83;;
66139;SDS011;52945;51.908;8.364;2023-02-07T16:32:49;8.88;;;4.05;;
66139;SDS011;52945;51.908;8.364;2023-02-07T16:35:50;8.00;;;3.90;;
66139;SDS011;52945;51.908;8.364;2023-02-07T16:38:50;11.80;;;4.28;;
66139;SDS011;52945;51.908;8.364;2023-02-07T16:41:53;7.75;;;4.03;;
66139;SDS011;52945;51.908;8.364;2023-02-07T16:44:59;9.85;;;4.45;;
66139;SDS011;52945;51.908;8.364;2023-02-07T16:48:00;7.80;;;4.03;;
66139;SDS011;52945;51.908;8.364;2023-02-07T16:51:01;10.23;;;4.88;;
66139;SDS011;52945;51.908;8.364;2023-02-07T16:54:01;14.07;;;4.50;;
66139;SDS011;52945;51.908;8.364;2023-02-07T16:57:02;9.60;;;4.57;;
66139;SDS011;52945;51.908;8.364;2023-02-07T17:00:03;8.60;;;4.40;;
66139;SDS011;52945;51.908;8.364;2023-02-07T17:03:07;10.27;;;4.40;;
66139;SDS011;52945;51.908;8.364;2023-02-07T17:06:16;12.02;;;4.10;;
66139;SDS011;52945;51.908;8.364;2023-02-07T17:09:22;9.00;;;4.35;;
66139;SDS011;52945;51.908;8.364;2023-02-07T17:12:23;10.48;;;4.80;;
66139;SDS011;52945;51.908;8.364;2023-02-07T17:15:25;11.07;;;4.53;;
66139;SDS011;52945;51.908;8.364;2023-02-07T17:18:25;11.15;;;4.63;;
66139;SDS011;52945;51.908;8.364;2023-02-07T17:21:26;10.32;;;4.20;;
66139;SDS011;52945;51.908;8.364;2023-02-07T17:24:26;12.02;;;5.03;;
66139;SDS011;52945;51.908;8.364;2023-02-07T17:27:27;13.32;;;5.30;;
66139;SDS011;52945;51.908;8.364;2023-02-07T17:30:29;12.35;;;4.93;;
66139;SDS011;52945;51.908;8.364;2023-02-07T17:33:36;10.70;;;5.05;;
66139;SDS011;52945;51.908;8.364;2023-02-07T17:36:37;12.93;;;5.22;;
66139;SDS011;52945;51.908;8.364;2023-02-07T17:39:41;15.73;;;5.88;;
66139;SDS011;52945;51.908;8.364;2023-02-07T17:42:41;16.23;;;6.38;;
66139;SDS011;52945;51.908;8.364;2023-02-07T17:45:42;20.40;;;7.82;;
66139;SDS011;52945;51.908;8.364;2023-02-07T17:48:42;17.85;;;7.88;;
66139;SDS011;52945;51.908;8.364;2023-02-07T17:51:46;15.95;;;8.13;;
66139;SDS011;52945;51.908;8.364;2023-02-07T17:54:46;19.65;;;9.00;;
66139;SDS011;52945;51.908;8.364;2023-02-07T17:57:48;17.50;;;7.68;;
66139;SDS011;52945;51.908;8.364;2023-02-07T18:00:49;17.60;;;7.93;;
66139;SDS011;52945;51.908;8.364;2023-02-07T18:03:51;17.35;;;7.80;;
66139;SDS011;52945;51.908;8.364;2023-02-07T18:06:52;17.50;;;6.90;;
66139;SDS011;52945;51.908;8.364;2023-02-07T18:09:53;18.25;;;7.70;;
66139;SDS011;52945;51.908;8.364;2023-02-07T18:12:54;20.55;;;7.43;;
66139;SDS011;52945;51.908;8.364;2023-02-07T18:15:54;20.73;;;8.00;;
66139;SDS011;52945;51.908;8.364;2023-02-07T18:18:56;16.13;;;7.28;;
66139;SDS011;52945;51.908;8.364;2023-02-07T18:21:57;15.75;;;7.50;;
66139;SDS011;52945;51.908;8.364;2023-02-07T18:24:57;16.42;;;7.05;;
66139;SDS011;52945;51.908;8.364;2023-02-07T18:27:58;21.02;;;7.82;;
66139;SDS011;52945;51.908;8.364;2023-02-07T18:31:00;20.15;;;7.38;;
66139;SDS011;52945;51.908;8.364;2023-02-07T18:34:06;22.15;;;9.50;;
66139;SDS011;52945;51.908;8.364;2023-02-07T18:37:07;22.58;;;8.25;;
66139;SDS011;52945;51.908;8.364;2023-02-07T18:40:07;19.17;;;7.45;;
66139;SDS011;52945;51.908;8.364;2023-02-07T18:43:09;14.13;;;7.60;;
66139;SDS011;52945;51.908;8.364;2023-02-07T18:46:11;18.63;;;7.50;;
66139;SDS011;52945;51.908;8.364;2023-02-07T18:49:13;16.63;;;6.95;;
66139;SDS011;52945;51.908;8.364;2023-02-07T18:52:14;17.70;;;7.22;;
66139;SDS011;52945;51.908;8.364;2023-02-07T18:55:15;14.07;;;6.43;;
66139;SDS011;52945;51.908;8.364;2023-02-07T18:58:16;15.68;;;6.50;;
66139;SDS011;52945;51.908;8.364;2023-02-07T19:01:17;18.35;;;6.72;;
66139;SDS011;52945;51.908;8.364;2023-02-07T19:04:19;18.77;;;7.93;;
66139;SDS011;52945;51.908;8.364;2023-02-07T19:07:20;14.02;;;6.43;;
66139;SDS011;52945;51.908;8.364;2023-02-07T19:10:21;15.38;;;6.00;;
66139;SDS011;52945;51.908;8.364;2023-02-07T19:13:21;13.32;;;6.20;;
66139;SDS011;52945;51.908;8.364;2023-02-07T19:16:22;15.00;;;5.70;;
66139;SDS011;52945;51.908;8.364;2023-02-07T19:19:25;12.20;;;6.25;;
66139;SDS011;52945;51.908;8.364;2023-02-07T19:22:27;13.30;;;5.70;;
66139;SDS011;52945;51.908;8.364;2023-02-07T19:25:28;13.73;;;5.93;;
66139;SDS011;52945;51.908;8.364;2023-02-07T19:28:29;10.52;;;5.70;;
66139;SDS011;52945;51.908;8.364;2023-02-07T19:31:31;14.70;;;6.03;;
66139;SDS011;52945;51.908;8.364;2023-02-07T19:34:33;15.45;;;6.50;;
66139;SDS011;52945;51.908;8.364;2023-02-07T19:40:34;15.68;;;6.40;;
66139;SDS011;52945;51.908;8.364;2023-02-07T19:43:35;12.07;;;5.53;;
66139;SDS011;52945;51.908;8.364;2023-02-07T19:46:36;11.73;;;6.15;;
66139;SDS011;52945;51.908;8.364;2023-02-07T19:49:36;12.88;;;6.90;;
66139;SDS011;52945;51.908;8.364;2023-02-07T19:52:37;19.45;;;7.00;;
66139;SDS011;52945;51.908;8.364;2023-02-07T19:55:38;25.42;;;8.35;;
66139;SDS011;52945;51.908;8.364;2023-02-07T19:58:40;32.65;;;11.68;;
66139;SDS011;52945;51.908;8.364;2023-02-07T20:01:42;25.25;;;8.38;;
66139;SDS011;52945;51.908;8.364;2023-02-07T20:04:43;21.83;;;7.45;;
66139;SDS011;52945;51.908;8.364;2023-02-07T20:07:43;17.55;;;7.18;;
66139;SDS011;52945;51.908;8.364;2023-02-07T20:10:44;15.10;;;7.15;;
66139;SDS011;52945;51.908;8.364;2023-02-07T20:13:51;15.95;;;6.50;;
66139;SDS011;52945;51.908;8.364;2023-02-07T20:16:54;14.27;;;6.22;;
66139;SDS011;52945;51.908;8.364;2023-02-07T20:19:54;16.15;;;6.40;;
66139;SDS011;52945;51.908;8.364;2023-02-07T20:22:55;13.05;;;6.32;;
66139;SDS011;52945;51.908;8.364;2023-02-07T20:26:05;14.38;;;6.20;;
66139;SDS011;52945;51.908;8.364;2023-02-07T20:29:09;15.95;;;6.80;;
66139;SDS011;52945;51.908;8.364;2023-02-07T20:32:11;14.00;;;6.15;;
66139;SDS011;52945;51.908;8.364;2023-02-07T20:35:13;11.85;;;5.07;;
66139;SDS011;52945;51.908;8.364;2023-02-07T20:38:14;10.65;;;5.07;;